createdAt,value
2023-10-10T00:01:08.754Z,15.46
2023-10-10T00:03:41.750Z,15.50
2023-10-10T00:06:11.313Z,15.48
2023-10-10T00:08:42.581Z,15.46
2023-10-10T00:11:16.190Z,15.46
2023-10-10T00:13:44.410Z,15.42
2023-10-10T00:16:26.283Z,15.45
2023-10-10T00:18:57.876Z,15.43
2023-10-10T00:21:25.080Z,15.42
2023-10-10T00:23:54.585Z,15.47
2023-10-10T00:26:24.495Z,15.44
2023-10-10T00:28:55.907Z,15.46
2023-10-10T00:31:24.072Z,15.47
2023-10-10T00:33:52.649Z,15.46
2023-10-10T00:36:23.906Z,15.47
2023-10-10T00:38:51.666Z,15.47
2023-10-10T00:41:18.987Z,15.50
2023-10-10T00:43:46.187Z,15.49
2023-10-10T00:46:13.064Z,15.48
2023-10-10T00:48:39.969Z,15.47
2023-10-10T00:51:12.757Z,15.50
2023-10-10T00:53:46.659Z,15.53
2023-10-10T00:56:15.524Z,15.52
2023-10-10T00:58:43.857Z,15.53
2023-10-10T01:01:15.556Z,15.51
2023-10-10T01:03:47.510Z,15.49
2023-10-10T01:06:33.195Z,15.49
2023-10-10T01:09:05.143Z,15.48
2023-10-10T01:11:31.959Z,15.44
2023-10-10T01:13:58.749Z,15.45
2023-10-10T01:16:26.544Z,15.43
2023-10-10T01:18:58.806Z,15.44
2023-10-10T01:21:34.626Z,15.45
2023-10-10T01:24:02.610Z,15.44
2023-10-10T01:26:38.411Z,15.41
2023-10-10T01:29:25.469Z,15.40
2023-10-10T01:31:53.794Z,15.44
2023-10-10T01:34:41.048Z,15.38
2023-10-10T01:37:23.659Z,15.38
2023-10-10T01:39:56.431Z,15.37
2023-10-10T01:42:39.061Z,15.36
2023-10-10T01:45:10.455Z,15.34
2023-10-10T01:47:41.367Z,15.33
2023-10-10T01:50:09.382Z,15.32
2023-10-10T01:52:37.797Z,15.31
2023-10-10T01:55:06.341Z,15.29
2023-10-10T01:57:33.112Z,15.32
2023-10-10T02:00:07.232Z,15.32
2023-10-10T02:02:38.763Z,15.31
2023-10-10T02:05:06.146Z,15.32
2023-10-10T02:07:33.520Z,15.31
2023-10-10T02:10:14.297Z,15.30
2023-10-10T02:12:45.895Z,15.30
2023-10-10T02:15:14.852Z,15.32
2023-10-10T02:17:52.663Z,15.32
2023-10-10T02:20:29.180Z,15.31
2023-10-10T02:23:03.023Z,15.29
2023-10-10T02:25:39.056Z,15.32
2023-10-10T02:28:21.924Z,15.32
2023-10-10T02:30:53.798Z,15.33
2023-10-10T02:33:21.375Z,15.32
2023-10-10T02:35:56.645Z,15.36
2023-10-10T02:38:33.742Z,15.33
2023-10-10T02:41:34.225Z,15.32
2023-10-10T02:44:07.497Z,15.33
2023-10-10T02:46:37.290Z,15.36
2023-10-10T02:49:23.452Z,15.37
2023-10-10T02:51:52.996Z,15.41
2023-10-10T02:54:28.809Z,15.43
2023-10-10T02:57:00.085Z,15.42
2023-10-10T02:59:39.441Z,15.41
2023-10-10T03:02:20.398Z,15.41
2023-10-10T03:05:04.453Z,15.46
2023-10-10T03:07:31.618Z,15.48
2023-10-10T03:10:24.200Z,15.48
2023-10-10T03:13:06.180Z,15.53
2023-10-10T03:15:34.742Z,15.50
2023-10-10T03:18:10.560Z,15.52
2023-10-10T03:20:38.516Z,15.54
2023-10-10T03:23:25.395Z,15.53
2023-10-10T03:26:06.287Z,15.54
2023-10-10T03:28:42.163Z,15.53
2023-10-10T03:31:12.147Z,15.52
2023-10-10T03:33:39.134Z,15.54
2023-10-10T03:36:14.048Z,15.55
2023-10-10T03:38:43.900Z,15.58
2023-10-10T03:41:40.478Z,15.58
2023-10-10T03:44:25.657Z,15.58
2023-10-10T03:46:59.082Z,15.55
2023-10-10T03:49:45.163Z,15.56
2023-10-10T03:52:30.753Z,15.54
2023-10-10T03:55:16.224Z,15.53
2023-10-10T03:58:01.643Z,15.48
2023-10-10T04:00:47.416Z,15.45
2023-10-10T04:03:32.910Z,15.43
2023-10-10T04:06:22.089Z,15.45
2023-10-10T04:09:07.472Z,15.43
2023-10-10T04:11:52.991Z,15.45
2023-10-10T04:14:38.307Z,15.49
2023-10-10T04:17:23.698Z,15.52
2023-10-10T04:20:09.176Z,15.52
2023-10-10T04:22:54.563Z,15.55
2023-10-10T04:25:39.986Z,15.56
2023-10-10T04:28:25.438Z,15.56
2023-10-10T04:31:10.816Z,15.58
2023-10-10T04:33:56.280Z,15.58
2023-10-10T04:36:41.618Z,15.57
2023-10-10T04:39:27.030Z,15.57
2023-10-10T04:42:14.012Z,15.57
2023-10-10T04:44:59.156Z,15.58
2023-10-10T04:47:44.762Z,15.61
2023-10-10T04:50:37.551Z,15.62
2023-10-10T04:53:23.171Z,15.65
2023-10-10T04:56:08.629Z,15.68
2023-10-10T04:58:53.966Z,15.71
2023-10-10T05:01:39.414Z,15.76
2023-10-10T05:04:24.735Z,15.79
2023-10-10T05:07:10.170Z,15.81
2023-10-10T05:09:55.599Z,15.82
2023-10-10T05:12:40.970Z,15.84
2023-10-10T05:15:26.454Z,15.85
2023-10-10T05:18:11.950Z,15.84
2023-10-10T05:20:57.426Z,15.83
2023-10-10T05:23:36.641Z,15.79
2023-10-10T05:26:06.994Z,15.77
2023-10-10T05:28:34.261Z,15.77
2023-10-10T05:31:04.482Z,15.79
2023-10-10T05:33:32.095Z,15.79
2023-10-10T05:36:00.422Z,15.77
2023-10-10T05:38:27.700Z,15.78
2023-10-10T05:40:55.451Z,15.86
2023-10-10T05:43:28.086Z,15.94
2023-10-10T05:45:55.708Z,16.01
2023-10-10T05:48:23.145Z,16.06
2023-10-10T05:50:50.157Z,16.08
2023-10-10T05:53:18.569Z,16.07
2023-10-10T05:55:51.692Z,16.09
2023-10-10T05:58:19.499Z,16.08
2023-10-10T06:00:50.588Z,16.09
2023-10-10T06:03:18.719Z,16.13
2023-10-10T06:05:46.191Z,16.09
2023-10-10T06:08:16.297Z,16.12
2023-10-10T06:10:43.588Z,16.11
2023-10-10T06:13:13.029Z,16.15
2023-10-10T06:15:40.148Z,16.14
2023-10-10T06:18:13.558Z,16.15
2023-10-10T06:20:51.376Z,16.17
2023-10-10T06:23:29.949Z,16.20
2023-10-10T06:26:00.156Z,16.22
2023-10-10T06:28:37.397Z,16.27
2023-10-10T06:31:11.867Z,16.31
2023-10-10T06:33:42.812Z,16.35
2023-10-10T06:36:40.200Z,16.40
2023-10-10T06:39:06.946Z,16.45
2023-10-10T06:41:39.087Z,16.52
2023-10-10T06:44:06.481Z,16.57
2023-10-10T06:46:33.963Z,16.67
2023-10-10T06:49:05.808Z,16.81
2023-10-10T06:51:34.808Z,16.88
2023-10-10T06:54:04.861Z,16.97
2023-10-10T06:56:57.520Z,17.10
2023-10-10T06:59:28.433Z,17.16
2023-10-10T07:01:58.526Z,17.21
2023-10-10T07:04:28.710Z,17.23
2023-10-10T07:07:02.336Z,17.25
2023-10-10T07:09:30.636Z,17.26
2023-10-10T07:12:10.599Z,17.29
2023-10-10T07:14:55.771Z,17.33
2023-10-10T07:17:28.768Z,17.39
2023-10-10T07:20:01.378Z,17.39
2023-10-10T07:22:29.661Z,17.43
2023-10-10T07:25:07.952Z,17.45
2023-10-10T07:27:37.092Z,17.53
2023-10-10T07:30:17.969Z,17.56
2023-10-10T07:32:52.308Z,17.55
2023-10-10T07:35:26.772Z,17.59
2023-10-10T07:37:54.286Z,17.57
2023-10-10T07:40:21.976Z,17.60
2023-10-10T07:42:59.598Z,17.64
2023-10-10T07:45:34.607Z,17.73
2023-10-10T07:48:02.488Z,17.83
2023-10-10T07:50:36.778Z,17.95
2023-10-10T07:53:08.131Z,18.04
2023-10-10T07:55:54.778Z,18.07
2023-10-10T07:58:37.151Z,18.11
2023-10-10T08:01:11.387Z,18.20
2023-10-10T08:03:45.665Z,18.32
2023-10-10T08:06:20.106Z,18.58
2023-10-10T08:08:50.516Z,18.79
2023-10-10T08:11:28.984Z,18.97
2023-10-10T08:13:56.298Z,19.11
2023-10-10T08:16:27.304Z,19.09
2023-10-10T08:18:54.540Z,19.12
2023-10-10T08:21:23.763Z,19.18
2023-10-10T08:23:57.991Z,19.12
2023-10-10T08:26:30.529Z,19.20
2023-10-10T08:28:57.471Z,19.27
2023-10-10T08:31:24.288Z,19.26
2023-10-10T08:33:51.192Z,19.24
2023-10-10T08:36:25.146Z,19.30
2023-10-10T08:39:00.442Z,19.35
2023-10-10T08:41:32.491Z,19.27
2023-10-10T08:43:59.542Z,19.25
2023-10-10T08:46:31.438Z,19.29
2023-10-10T08:49:06.059Z,19.32
2023-10-10T08:51:35.989Z,19.42
2023-10-10T08:54:14.132Z,19.54
2023-10-10T08:57:01.438Z,19.55
2023-10-10T08:59:30.172Z,19.52
2023-10-10T09:02:21.616Z,19.42
2023-10-10T09:04:52.090Z,19.49
2023-10-10T09:07:24.576Z,19.71
2023-10-10T09:10:06.959Z,19.95
2023-10-10T09:12:57.832Z,20.01
2023-10-10T09:15:25.133Z,19.99
2023-10-10T09:17:57.242Z,19.95
2023-10-10T09:20:29.149Z,19.96
2023-10-10T09:23:03.448Z,19.94
2023-10-10T09:25:42.519Z,19.89
2023-10-10T09:28:12.803Z,19.95
2023-10-10T09:30:46.968Z,19.98
2023-10-10T09:33:31.322Z,20.03
2023-10-10T09:36:09.845Z,20.01
2023-10-10T09:38:48.104Z,20.00
2023-10-10T09:41:34.670Z,19.95
2023-10-10T09:44:23.150Z,19.86
2023-10-10T09:47:05.308Z,19.78
2023-10-10T09:49:46.493Z,19.75
2023-10-10T09:52:39.718Z,19.78
2023-10-10T09:55:13.433Z,19.81
2023-10-10T09:57:59.565Z,19.89
2023-10-10T10:00:34.584Z,19.91
2023-10-10T10:03:21.586Z,20.01
2023-10-10T10:06:02.061Z,20.11
2023-10-10T10:08:45.858Z,20.15
2023-10-10T10:11:27.448Z,20.22
2023-10-10T10:14:18.089Z,20.19
2023-10-10T10:17:15.249Z,20.21
2023-10-10T10:19:49.021Z,20.30
2023-10-10T10:22:20.258Z,20.36
2023-10-10T10:24:49.810Z,20.56
2023-10-10T10:27:33.186Z,20.75
2023-10-10T10:30:20.062Z,20.85
2023-10-10T10:32:53.606Z,21.00
2023-10-10T10:35:22.755Z,21.15
2023-10-10T10:37:59.864Z,21.22
2023-10-10T10:40:43.932Z,21.30
2023-10-10T10:43:15.812Z,21.38
2023-10-10T10:45:52.854Z,21.51
2023-10-10T10:48:35.551Z,21.54
2023-10-10T10:51:29.677Z,21.65
2023-10-10T10:54:00.361Z,21.72
2023-10-10T10:56:32.488Z,21.77
2023-10-10T10:59:14.317Z,21.85
2023-10-10T11:01:46.927Z,21.97
2023-10-10T11:04:26.301Z,22.20
2023-10-10T11:07:02.996Z,22.37
2023-10-10T11:09:30.131Z,22.45
2023-10-10T11:12:08.217Z,22.50
2023-10-10T11:14:48.378Z,22.58
2023-10-10T11:17:20.221Z,22.76
2023-10-10T11:19:48.656Z,22.86
2023-10-10T11:22:36.318Z,22.95
2023-10-10T11:25:06.492Z,23.02
2023-10-10T11:27:45.092Z,23.06
2023-10-10T11:30:14.008Z,23.37
2023-10-10T11:32:48.412Z,23.70
2023-10-10T11:35:27.743Z,23.85
2023-10-10T11:38:01.698Z,23.93
2023-10-10T11:40:32.726Z,24.20
2023-10-10T11:43:07.657Z,24.34
2023-10-10T11:45:42.927Z,24.30
2023-10-10T11:48:17.559Z,24.25
2023-10-10T11:50:48.475Z,24.15
2023-10-10T11:53:28.988Z,24.08
2023-10-10T11:55:56.560Z,23.89
2023-10-10T11:58:37.447Z,23.66
2023-10-10T12:01:07.758Z,23.46
2023-10-10T12:03:41.276Z,23.27
2023-10-10T12:06:16.226Z,23.20
2023-10-10T12:08:48.283Z,23.04
2023-10-10T12:11:22.091Z,22.85
2023-10-10T12:13:51.960Z,22.65
2023-10-10T12:16:25.590Z,22.57
2023-10-10T12:18:56.472Z,22.44
2023-10-10T12:21:24.653Z,22.33
2023-10-10T12:24:01.497Z,22.27
2023-10-10T12:26:31.502Z,22.25
2023-10-10T12:28:58.774Z,22.28
2023-10-10T12:31:25.639Z,22.47
2023-10-10T12:33:55.531Z,22.66
2023-10-10T12:36:31.016Z,22.84
2023-10-10T12:39:00.860Z,22.96
2023-10-10T12:41:29.332Z,23.06
2023-10-10T12:43:56.606Z,23.14
2023-10-10T12:46:23.455Z,23.48
2023-10-10T12:48:53.444Z,23.91
2023-10-10T12:51:24.028Z,24.35
2023-10-10T12:53:51.096Z,24.82
2023-10-10T12:56:18.760Z,25.33
2023-10-10T12:58:53.278Z,25.40
2023-10-10T13:01:27.003Z,25.57
2023-10-10T13:03:54.196Z,25.74
2023-10-10T13:06:24.411Z,25.72
2023-10-10T13:08:53.991Z,25.52
2023-10-10T13:11:21.871Z,25.37
2023-10-10T13:13:58.109Z,25.33
2023-10-10T13:16:43.371Z,25.57
2023-10-10T13:19:11.219Z,25.93
2023-10-10T13:21:38.210Z,26.17
2023-10-10T13:24:13.363Z,26.43
2023-10-10T13:26:41.371Z,26.45
2023-10-10T13:29:09.116Z,26.39
2023-10-10T13:31:39.413Z,26.41
2023-10-10T13:34:06.340Z,26.47
2023-10-10T13:36:35.702Z,26.30
2023-10-10T13:39:08.673Z,26.06
2023-10-10T13:41:38.861Z,25.81
2023-10-10T13:44:05.689Z,25.65
2023-10-10T13:46:34.527Z,25.52
2023-10-10T13:49:01.526Z,25.34
2023-10-10T13:51:29.566Z,25.26
2023-10-10T13:53:59.226Z,25.21
2023-10-10T13:56:32.378Z,25.06
2023-10-10T13:59:01.589Z,25.21
2023-10-10T14:01:31.359Z,25.54
2023-10-10T14:04:05.554Z,25.96
2023-10-10T14:06:47.245Z,26.38
2023-10-10T14:09:23.615Z,26.71
2023-10-10T14:12:08.253Z,27.03
2023-10-10T14:14:35.129Z,27.21
2023-10-10T14:17:02.047Z,27.07
2023-10-10T14:19:28.810Z,26.81
2023-10-10T14:21:55.581Z,26.54
2023-10-10T14:24:25.821Z,26.40
2023-10-10T14:26:52.779Z,26.09
2023-10-10T14:29:20.754Z,25.88
2023-10-10T14:31:47.817Z,25.75
2023-10-10T14:34:25.844Z,25.58
2023-10-10T14:36:55.034Z,25.42
2023-10-10T14:39:37.910Z,25.21
2023-10-10T14:42:04.987Z,25.08
2023-10-10T14:44:33.016Z,24.95
2023-10-10T14:46:59.909Z,24.94
2023-10-10T14:49:33.000Z,24.85
2023-10-10T14:52:08.220Z,24.80
2023-10-10T14:54:39.905Z,24.69
2023-10-10T14:57:07.720Z,24.66
2023-10-10T14:59:35.421Z,24.60
2023-10-10T15:02:02.754Z,24.49
2023-10-10T15:04:33.362Z,24.37
2023-10-10T15:07:01.014Z,24.27
2023-10-10T15:09:28.146Z,24.16
2023-10-10T15:12:00.413Z,24.16
2023-10-10T15:14:27.716Z,24.23
2023-10-10T15:16:55.328Z,24.35
2023-10-10T15:19:22.071Z,24.31
2023-10-10T15:21:49.872Z,24.30
2023-10-10T15:24:17.368Z,24.28
2023-10-10T15:26:49.664Z,24.25
2023-10-10T15:29:18.727Z,24.29
2023-10-10T15:31:46.652Z,24.71
2023-10-10T15:34:17.048Z,25.11
2023-10-10T15:36:45.488Z,25.37
2023-10-10T15:39:13.052Z,25.60
2023-10-10T15:45:21.396Z,25.55
2023-10-10T15:47:56.049Z,25.41
2023-10-10T15:50:23.261Z,25.27
2023-10-10T15:52:50.692Z,25.21
2023-10-10T15:55:24.312Z,25.21
2023-10-10T15:57:54.293Z,25.03
2023-10-10T16:00:34.202Z,24.92
2023-10-10T16:03:07.857Z,24.74
2023-10-10T16:05:42.984Z,24.59
2023-10-10T16:08:10.326Z,24.40
2023-10-10T16:10:39.571Z,24.23
2023-10-10T16:13:08.962Z,24.05
2023-10-10T16:15:35.895Z,23.88
2023-10-10T16:18:05.187Z,23.69
2023-10-10T16:20:37.136Z,23.52
2023-10-10T16:23:09.649Z,23.31
2023-10-10T16:25:38.706Z,23.11
2023-10-10T16:28:09.221Z,22.90
2023-10-10T16:30:37.810Z,22.72
2023-10-10T16:33:04.928Z,22.53
2023-10-10T16:35:34.220Z,22.38
2023-10-10T16:38:03.474Z,22.23
2023-10-10T16:40:32.904Z,22.07
2023-10-10T16:42:59.669Z,21.92
2023-10-10T16:45:33.918Z,21.78
2023-10-10T16:48:02.798Z,21.65
2023-10-10T16:50:29.863Z,21.55
2023-10-10T16:53:10.102Z,21.47
2023-10-10T16:55:38.053Z,21.37
2023-10-10T16:58:04.957Z,21.25
2023-10-10T17:00:31.734Z,21.15
2023-10-10T17:02:58.780Z,21.04
2023-10-10T17:05:25.743Z,20.93
2023-10-10T17:07:52.475Z,20.84
2023-10-10T17:10:19.257Z,20.74
2023-10-10T17:12:46.085Z,20.69
2023-10-10T17:15:20.240Z,20.61
2023-10-10T17:17:47.395Z,20.55
2023-10-10T17:20:17.489Z,20.50
2023-10-10T17:22:49.679Z,20.45
2023-10-10T17:25:16.490Z,20.38
2023-10-10T17:27:45.247Z,20.32
2023-10-10T17:30:15.649Z,20.25
2023-10-10T17:32:43.921Z,20.21
2023-10-10T17:35:11.557Z,20.13
2023-10-10T17:37:38.656Z,20.07
2023-10-10T17:40:14.553Z,20.02
2023-10-10T17:42:50.216Z,19.98
2023-10-10T17:45:17.687Z,19.93
2023-10-10T17:47:44.843Z,19.91
2023-10-10T17:50:12.116Z,19.89
2023-10-10T17:52:38.994Z,19.87
2023-10-10T17:55:06.004Z,19.85
2023-10-10T17:57:32.744Z,19.84
2023-10-10T17:59:59.590Z,19.80
2023-10-10T18:02:26.414Z,19.78
2023-10-10T18:04:53.307Z,19.73
2023-10-10T18:07:23.540Z,19.68
2023-10-10T18:09:55.870Z,19.64
2023-10-10T18:12:23.520Z,19.62
2023-10-10T18:14:56.247Z,19.62
2023-10-10T18:17:26.111Z,19.61
2023-10-10T18:19:52.986Z,19.56
2023-10-10T18:22:19.976Z,19.53
2023-10-10T18:24:48.573Z,19.49
2023-10-10T18:27:17.879Z,19.47
2023-10-10T18:29:44.755Z,19.45
2023-10-10T18:32:11.606Z,19.43
2023-10-10T18:34:42.894Z,19.41
2023-10-10T18:37:12.760Z,19.38
2023-10-10T18:39:39.863Z,19.37
2023-10-10T18:42:10.740Z,19.34
2023-10-10T18:44:38.799Z,19.35
2023-10-10T18:47:05.805Z,19.32
2023-10-10T18:49:35.074Z,19.30
2023-10-10T18:52:02.044Z,19.32
2023-10-10T18:54:32.076Z,19.29
2023-10-10T18:57:02.095Z,19.29
2023-10-10T18:59:29.382Z,19.28
2023-10-10T19:01:57.082Z,19.30
2023-10-10T19:04:23.981Z,19.29
2023-10-10T19:06:50.972Z,19.30
2023-10-10T19:09:19.605Z,19.35
2023-10-10T19:11:46.597Z,19.34
2023-10-10T19:14:14.480Z,19.40
2023-10-10T19:16:41.681Z,19.40
2023-10-10T19:19:08.991Z,19.39
2023-10-10T19:21:36.102Z,19.39
2023-10-10T19:24:03.102Z,19.38
2023-10-10T19:26:30.278Z,19.35
2023-10-10T19:28:58.276Z,19.35
2023-10-10T19:31:25.207Z,19.35
2023-10-10T19:33:52.378Z,19.35
2023-10-10T19:36:21.467Z,19.34
2023-10-10T19:38:49.116Z,19.32
2023-10-10T19:41:16.206Z,19.29
2023-10-10T19:43:43.208Z,19.26
2023-10-10T19:46:12.998Z,19.24
2023-10-10T19:48:43.958Z,19.21
2023-10-10T19:51:18.539Z,19.17
2023-10-10T19:53:47.420Z,19.12
2023-10-10T19:56:14.408Z,19.08
2023-10-10T19:58:43.244Z,19.06
2023-10-10T20:01:10.428Z,19.01
2023-10-10T20:03:37.663Z,18.97
2023-10-10T20:06:08.128Z,18.91
2023-10-10T20:08:36.180Z,18.86
2023-10-10T20:11:04.872Z,18.80
2023-10-10T20:13:31.707Z,18.72
2023-10-10T20:15:58.466Z,18.64
2023-10-10T20:18:26.479Z,18.57
2023-10-10T20:20:53.461Z,18.51
2023-10-10T20:23:21.881Z,18.45
2023-10-10T20:25:52.576Z,18.42
2023-10-10T20:28:19.456Z,18.39
2023-10-10T20:30:47.013Z,18.32
2023-10-10T20:33:17.678Z,18.29
2023-10-10T20:35:45.951Z,18.26
2023-10-10T20:38:13.582Z,18.23
2023-10-10T20:40:44.737Z,18.22
2023-10-10T20:43:12.303Z,18.20
2023-10-10T20:45:39.480Z,18.18
2023-10-10T20:48:13.977Z,18.16
2023-10-10T20:50:42.613Z,18.14
2023-10-10T20:53:09.590Z,18.12
2023-10-10T20:55:36.670Z,18.10
2023-10-10T20:58:03.450Z,18.11
2023-10-10T21:00:30.223Z,18.11
2023-10-10T21:03:02.282Z,18.10
2023-10-10T21:05:29.282Z,18.13
2023-10-10T21:07:56.436Z,18.14
2023-10-10T21:10:24.745Z,18.16
2023-10-10T21:12:51.841Z,18.16
2023-10-10T21:15:21.323Z,18.16
2023-10-10T21:18:00.487Z,18.18
2023-10-10T21:20:29.227Z,18.21
2023-10-10T21:23:00.540Z,18.21
2023-10-10T21:25:27.917Z,18.25
2023-10-10T21:27:57.745Z,18.28
2023-10-10T21:30:29.151Z,18.31
2023-10-10T21:32:58.027Z,18.32
2023-10-10T21:35:31.538Z,18.34
2023-10-10T21:38:03.683Z,18.31
2023-10-10T21:40:34.088Z,18.32
2023-10-10T21:43:01.109Z,18.29
2023-10-10T21:45:34.018Z,18.27
2023-10-10T21:48:05.320Z,18.24
2023-10-10T21:50:32.820Z,18.23
2023-10-10T21:53:01.758Z,18.23
2023-10-10T21:55:29.488Z,18.21
2023-10-10T21:57:57.006Z,18.19
2023-10-10T22:00:31.508Z,18.15
2023-10-10T22:03:05.295Z,18.12
2023-10-10T22:05:33.281Z,18.10
2023-10-10T22:08:00.864Z,18.08
2023-10-10T22:10:28.131Z,18.08
2023-10-10T22:12:56.159Z,18.06
2023-10-10T22:15:26.622Z,18.06
2023-10-10T22:17:58.039Z,18.03
2023-10-10T22:20:29.151Z,18.03
2023-10-10T22:22:56.109Z,18.01
2023-10-10T22:25:23.535Z,18.01
2023-10-10T22:27:52.997Z,17.99
2023-10-10T22:30:27.721Z,17.99
2023-10-10T22:32:57.444Z,17.98
2023-10-10T22:35:27.773Z,17.99
2023-10-10T22:37:57.490Z,17.99
2023-10-10T22:40:28.255Z,17.99
2023-10-10T22:43:03.149Z,18.01
2023-10-10T22:45:34.342Z,18.03
2023-10-10T22:48:03.032Z,18.05
2023-10-10T22:50:33.604Z,18.07
2023-10-10T22:53:05.154Z,18.11
2023-10-10T22:55:36.075Z,18.12
2023-10-10T22:58:10.230Z,18.15
2023-10-10T23:00:38.283Z,18.18
2023-10-10T23:03:11.188Z,18.16
2023-10-10T23:05:44.546Z,18.17
2023-10-10T23:08:12.329Z,18.16
2023-10-10T23:10:44.695Z,18.16
2023-10-10T23:13:16.973Z,18.19
2023-10-10T23:15:50.765Z,18.19
2023-10-10T23:18:18.123Z,18.21
2023-10-10T23:20:45.717Z,18.21
2023-10-10T23:23:13.357Z,18.24
2023-10-10T23:25:40.826Z,18.25
2023-10-10T23:28:09.945Z,18.26
2023-10-10T23:30:40.440Z,18.25
2023-10-10T23:33:13.078Z,18.28
2023-10-10T23:35:40.553Z,18.30
2023-10-10T23:38:07.407Z,18.30
2023-10-10T23:40:41.360Z,18.30
2023-10-10T23:43:10.188Z,18.28
2023-10-10T23:45:43.759Z,18.27
2023-10-10T23:48:17.249Z,18.22
2023-10-10T23:50:45.340Z,18.21
2023-10-10T23:53:15.821Z,18.19
2023-10-10T23:55:46.489Z,18.19
2023-10-10T23:58:14.176Z,18.17
